Ponce De Leon, Missouri
Current Conditions -  °F | °C
As of 3:15 PM on Monday 24 Nov 2014 (Local Time) from KFWB Reporting Station
Few Clouds Few Clouds  
Wind Chill: 42°   Ceiling: Unl
Heat Index: 48°   Visibility: 10mi
Dew Point: 27°   Wind: 15mph
Humidity: 43%   Direction: 280°W
Pressure: 29.87"   Gusts: 25mph
Location:  36.88°N, 93.35°W
Report Text: KFWB 242115Z AUTO 28013G22KT 10SM FEW050 09/M03 A2987 RMK AO2
Loading
Personal Weather Stations






























Interactive Weather Map New forecast layout! Learn more

10-Day Weather Forecast

Advertisements
Track Severe Weather on mobile